Etusivu
METAR-TAF:

METAR-TAF

Lentoasemat :

Clark’s Point, Alaska, Yhdysvallat

Leveyspiiri: 58-50-01N, Pituuspiiri: 158-31-46W, korkeus merenpinnasta: 24 m

Tämänhetkinen sää

Tämä raportti tehtiin 1 tunti ja 11 minuuttia sitten, kello 02.56 UTC
Tuuli 10 kn etelästä/kaakosta
Lämpötila 14°C
Kosteus 33%
Ilmanpaine 1011 hPa
Näkyvyys: 12.9 km
selkeää

METAR: PFCL 030256Z AUTO 16010KT 8SM CLR 14/M02 A2986 RMK AO2 SLP103 T01391022 58015 TSNO

Aika: 20:07 (04:07 UTC)


TAF: puuttuu

Säähavainnot ja -ennusteet yli 4000 lentoasemalta (METAR- ja TAF-raportit).

Käytössä olevat sääasemat on merkitty karttaan keltaisilla ja punaisilla pisteillä.

Aseta hiiri pisteen päälle nähdäksesi sääaseman nimen.

Klikkaa sitten nähdäksesi säähavainnot ja -ennusteet.

Kartan vaihtaminen: klikkaa mustalla rastilla varustettuja vihreitä pisteitä, niin voit zoomata sisään; viivalla varustettua vihreää pistettä, niin voit zoomata ulos tai vihreitä nuolia, niin pääset viereisille kartoille.


METAR-TAF: